Orbital elements of FENGYUN 1C DEB
| Launched | 9 May 1999 |
| Flight ended | – |
| Launch site | Taiyuan Space Center, PRC |
| Owner | People's Republic of China |
| NORAD ID | 30679 |
| Date fetched |
Epoch osculation |
Inc. [°] |
Ecc. | RA asc node [hr] |
Arg Peri. [°] |
Mean anom [°] |
Mean motion [rev/day] |
Abs. mag |
| Date fetched |
Epoch osculation |
Inc. [°] |
Ecc. | RA asc node [hr] |
Arg Peri. [°] |
Mean anom [°] |
Mean motion [rev/day] |
Abs. mag |
| 2026 May 07 17:58 | 2026 May 05 09:47:50 | 99.3605 | 0.01719 | 12.0536 | 59.5932 | 312.4584 | 13.79932 | – |
| 2026 May 06 17:57 | 2026 May 05 09:47:50 | 99.3605 | 0.01719 | 12.0536 | 59.5932 | 312.4584 | 13.79932 | – |
| 2026 May 05 17:57 | 2026 May 05 09:47:50 | 99.3605 | 0.01719 | 12.0536 | 59.5932 | 312.4584 | 13.79932 | – |
| 2026 May 04 17:57 | 2026 Apr 30 02:52:03 | 99.3610 | 0.01722 | 11.7047 | 73.5057 | 312.4584 | 13.79932 | – |
| 2026 May 03 17:57 | 2026 Apr 30 02:52:03 | 99.3610 | 0.01722 | 11.7047 | 73.5057 | 312.4584 | 13.79932 | – |
| 2026 May 02 17:57 | 2026 Apr 30 02:52:03 | 99.3610 | 0.01722 | 11.7047 | 73.5057 | 312.4584 | 13.79932 | – |
| 2026 May 01 17:56 | 2026 Apr 30 02:52:03 | 99.3610 | 0.01722 | 11.7047 | 73.5057 | 312.4584 | 13.79932 | – |
| 2026 Apr 30 17:56 | 2026 Apr 30 02:52:03 | 99.3610 | 0.01722 | 11.7047 | 73.5057 | 312.4584 | 13.79932 | – |
| 2026 Apr 29 17:57 | 2026 Apr 22 19:17:17 | 99.3617 | 0.01726 | 11.2220 | 92.7024 | 312.4584 | 13.79932 | – |
| 2026 Apr 28 17:56 | 2026 Apr 22 19:17:17 | 99.3617 | 0.01726 | 11.2220 | 92.7024 | 312.4584 | 13.79932 | – |
| 2026 Apr 27 17:58 | 2026 Apr 22 19:17:17 | 99.3617 | 0.01726 | 11.2220 | 92.7024 | 312.4584 | 13.79932 | – |
| 2026 Apr 26 17:58 | 2026 Apr 22 19:17:17 | 99.3617 | 0.01726 | 11.2220 | 92.7024 | 312.4584 | 13.79932 | – |
| 2026 Apr 25 17:58 | 2026 Apr 22 19:17:17 | 99.3617 | 0.01726 | 11.2220 | 92.7024 | 312.4584 | 13.79932 | – |
| 2026 Apr 24 17:59 | 2026 Apr 22 19:17:17 | 99.3617 | 0.01726 | 11.2220 | 92.7024 | 312.4584 | 13.79932 | – |
| 2026 Apr 23 17:57 | 2026 Apr 19 09:29:00 | 99.3623 | 0.01727 | 10.9970 | 101.6431 | 312.4584 | 13.79932 | – |
| 2026 Apr 22 17:57 | 2026 Apr 19 09:29:00 | 99.3623 | 0.01727 | 10.9970 | 101.6431 | 312.4584 | 13.79932 | – |
| 2026 Apr 21 17:57 | 2026 Apr 19 09:29:00 | 99.3623 | 0.01727 | 10.9970 | 101.6431 | 312.4584 | 13.79932 | – |
| 2026 Apr 20 17:57 | 2026 Apr 19 09:29:00 | 99.3623 | 0.01727 | 10.9970 | 101.6431 | 312.4584 | 13.79932 | – |
| 2026 Apr 19 17:58 | 2026 Apr 19 09:29:00 | 99.3623 | 0.01727 | 10.9970 | 101.6431 | 312.4584 | 13.79932 | – |
| 2026 Apr 18 17:56 | 2026 Apr 11 20:31:38 | 99.3633 | 0.01729 | 10.4995 | 121.3962 | 312.4584 | 13.79932 | – |
| 2026 Apr 16 17:57 | 2026 Apr 11 20:31:38 | 99.3633 | 0.01729 | 10.4995 | 121.3962 | 312.4584 | 13.79932 | – |
| 2026 Apr 14 17:57 | 2026 Apr 11 20:31:38 | 99.3633 | 0.01729 | 10.4995 | 121.3962 | 312.4584 | 13.79932 | – |
| 2026 Apr 13 17:57 | 2026 Apr 11 20:31:38 | 99.3633 | 0.01729 | 10.4995 | 121.3962 | 312.4584 | 13.79932 | – |
| 2026 Apr 12 17:57 | 2026 Apr 07 19:04:25 | 99.3637 | 0.01729 | 10.2315 | 132.0295 | 312.4584 | 13.79932 | – |
| 2026 Apr 11 17:57 | 2026 Apr 07 19:04:25 | 99.3637 | 0.01729 | 10.2315 | 132.0295 | 312.4584 | 13.79932 | – |
| 2026 Apr 10 17:58 | 2026 Apr 07 19:04:25 | 99.3637 | 0.01729 | 10.2315 | 132.0295 | 312.4584 | 13.79932 | – |